Time;durP1;ratioP1;P1;durP2;ratioP2;P2;SDS_P1;SDS_P2;PMS_P1;PMS_P2;Temp;Humidity;BMP_temperature;BMP_pressure;BME280_temperature;BME280_humidity;BME280_pressure;Samples;Min_cycle;Max_cycle;Signal;HPM_P1;HPM_P2
2020/12/24 00:00:06;;;;;;;23.50;19.15;;;;;;;10.26;60.23;102019.56;1724288;82;21561;-47
2020/12/24 00:02:36;;;;;;;26.57;19.60;;;;;;;10.24;60.45;102016.09;1715832;82;21163;-47
2020/12/24 00:05:05;;;;;;;28.27;20.10;;;;;;;10.24;60.42;102022.14;1722654;82;21146;-47
2020/12/24 00:07:33;;;;;;;29.27;20.37;;;;;;;10.23;60.49;102024.33;1720992;82;21655;-47
2020/12/24 00:10:02;;;;;;;33.50;21.37;;;;;;;10.23;60.55;102026.05;1724666;82;21161;-47
2020/12/24 00:12:30;;;;;;;36.53;23.20;;;;;;;10.23;60.51;102023.45;1720922;82;21288;-47
2020/12/24 00:14:58;;;;;;;35.13;22.60;;;;;;;10.20;60.52;102019.56;1727270;82;21302;-46
2020/12/24 00:17:26;;;;;;;35.58;22.32;;;;;;;10.22;60.68;102020.44;1726673;82;21145;-47
2020/12/24 00:19:55;;;;;;;41.28;23.47;;;;;;;10.23;60.72;102024.75;1724527;82;21470;-48
2020/12/24 00:22:23;;;;;;;42.15;22.73;;;;;;;10.24;60.72;102024.74;1730452;82;21144;-48
2020/12/24 00:24:52;;;;;;;38.20;24.02;;;;;;;10.24;60.71;102023.90;1726561;82;21295;-47
2020/12/24 00:27:20;;;;;;;40.43;24.65;;;;;;;10.24;60.60;102027.80;1727369;82;21582;-47
2020/12/24 00:29:48;;;;;;;34.05;22.10;;;;;;;10.24;60.72;102025.20;1727369;82;21161;-47
2020/12/24 00:32:16;;;;;;;36.73;22.55;;;;;;;10.24;60.79;102025.20;1712285;82;21322;-46
2020/12/24 00:34:45;;;;;;;35.17;23.22;;;;;;;10.25;60.90;102030.81;1725600;82;21323;-47
2020/12/24 00:37:14;;;;;;;36.17;23.45;;;;;;;10.28;60.91;102036.03;1726647;82;21172;-47
2020/12/24 00:39:42;;;;;;;41.35;23.70;;;;;;;10.29;60.98;102027.34;1722639;82;21297;-47
2020/12/24 00:42:10;;;;;;;40.48;23.50;;;;;;;10.30;61.08;102036.48;1730791;82;21280;-47
2020/12/24 00:44:39;;;;;;;35.43;22.10;;;;;;;10.30;61.28;102036.91;1724507;82;21291;-47
2020/12/24 00:47:07;;;;;;;38.23;23.65;;;;;;;10.31;61.41;102039.49;1724335;82;21157;-46
2020/12/24 00:49:35;;;;;;;31.73;22.02;;;;;;;10.33;61.40;102036.88;1724341;82;21133;-47
2020/12/24 00:52:03;;;;;;;33.23;22.45;;;;;;;10.36;61.35;102034.30;1724306;81;21280;-46
2020/12/24 00:54:31;;;;;;;36.28;21.82;;;;;;;10.38;61.31;102022.15;1724271;82;21286;-47
2020/12/24 00:57:01;;;;;;;27.65;21.45;;;;;;;10.39;61.12;102021.27;1726020;82;21177;-47
2020/12/24 00:59:31;;;;;;;31.65;21.12;;;;;;;10.39;61.15;102013.46;1727777;82;21137;-47
2020/12/24 01:01:59;;;;;;;30.62;21.70;;;;;;;10.38;61.27;102010.02;1727427;82;21727;-47
2020/12/24 01:04:27;;;;;;;32.38;21.52;;;;;;;10.40;61.19;102008.70;1725764;82;21681;-47
2020/12/24 01:06:55;;;;;;;33.50;22.95;;;;;;;10.42;61.12;102012.17;1725453;81;21561;-46
2020/12/24 01:09:23;;;;;;;29.63;20.80;;;;;;;10.42;61.05;102016.08;1726643;82;21173;-47
2020/12/24 01:11:51;;;;;;;32.08;21.97;;;;;;;10.40;60.93;102016.09;1722596;82;21307;-47
2020/12/24 01:14:20;;;;;;;29.85;20.95;;;;;;;10.40;60.81;102016.52;1729541;82;21145;-47
2020/12/24 01:16:48;;;;;;;28.38;20.82;;;;;;;10.41;60.77;102010.42;1726503;82;21153;-46
2020/12/24 01:19:16;;;;;;;25.52;20.40;;;;;;;10.41;60.78;102003.49;1724543;82;21275;-47
2020/12/24 01:21:47;;;;;;;29.63;21.15;;;;;;;10.40;60.69;102005.67;1721402;81;21180;-47
2020/12/24 01:24:16;;;;;;;26.25;20.02;;;;;;;10.40;60.59;102004.80;1686122;84;21355;-47
2020/12/24 01:26:48;;;;;;;28.27;21.07;;;;;;;10.39;60.59;102005.66;1679335;84;21198;-47
2020/12/24 01:29:16;;;;;;;;;;;;;;;10.37;60.63;101999.16;1677726;83;21643;-46
2020/12/24 01:31:48;;;;;;;25.77;19.35;;;;;;;10.34;60.75;101991.80;1669405;85;20135;-47
2020/12/24 01:34:22;;;;;;;26.55;19.82;;;;;;;10.38;60.86;101997.44;1771491;79;23228;-47
2020/12/24 01:36:50;;;;;;;24.95;20.27;;;;;;;10.34;60.83;101998.31;1732236;82;21137;-46
2020/12/24 01:39:20;;;;;;;28.83;20.55;;;;;;;10.33;60.98;102000.46;1742821;82;21291;-47
2020/12/24 01:41:49;;;;;;;25.75;19.85;;;;;;;10.31;60.92;101993.97;1736520;82;21155;-47
2020/12/24 01:44:17;;;;;;;26.90;19.48;;;;;;;10.32;61.01;102001.34;1738043;82;21294;-46
2020/12/24 01:46:46;;;;;;;28.45;19.45;;;;;;;10.30;61.10;102001.36;1741393;82;21569;-47
2020/12/24 01:49:19;;;;;;;29.05;19.65;;;;;;;10.31;61.10;102002.20;1714562;82;21136;-46
2020/12/24 01:51:51;;;;;;;32.00;20.88;;;;;;;10.33;61.03;102005.66;1736415;82;21205;-46
2020/12/24 01:54:22;;;;;;;29.98;21.12;;;;;;;10.33;61.02;101999.16;1691921;84;21151;-47
2020/12/24 01:56:50;;;;;;;29.60;21.95;;;;;;;10.32;61.02;101996.14;1697241;84;21170;-47
2020/12/24 01:59:23;;;;;;;32.75;21.93;;;;;;;10.33;61.01;101991.35;1692760;84;21182;-46
2020/12/24 02:01:51;;;;;;;33.75;23.98;;;;;;;10.33;61.12;101990.05;1694743;84;21336;-46
2020/12/24 02:04:19;;;;;;;32.78;24.07;;;;;;;10.33;61.16;101990.93;1699550;84;21173;-47
2020/12/24 02:06:50;;;;;;;33.88;24.30;;;;;;;10.36;61.07;101990.06;1693176;84;21670;-46
2020/12/24 02:09:19;;;;;;;35.85;26.65;;;;;;;10.35;61.07;101993.52;1698661;84;21308;-47
2020/12/24 02:11:47;;;;;;;33.28;25.00;;;;;;;10.34;61.11;101984.00;1696688;84;21241;-46
2020/12/24 02:14:16;;;;;;;31.57;23.57;;;;;;;10.34;61.13;101978.80;1694623;84;21175;-46
2020/12/24 02:16:44;;;;;;;31.52;23.25;;;;;;;10.33;61.06;101982.25;1694291;84;21167;-47
2020/12/24 02:19:13;;;;;;;29.57;23.07;;;;;;;10.33;61.15;101984.42;1694275;84;21309;-46
2020/12/24 02:21:41;;;;;;;32.65;24.12;;;;;;;10.34;61.17;101986.60;1693975;84;21229;-47
2020/12/24 02:24:09;;;;;;;34.38;23.80;;;;;;;10.33;61.29;101984.85;1694748;84;21190;-47
2020/12/24 02:26:38;;;;;;;30.65;23.07;;;;;;;10.32;61.26;101991.81;1691837;84;21615;-46
2020/12/24 02:29:06;;;;;;;30.70;21.35;;;;;;;10.31;61.36;101987.89;1694036;84;21602;-47
2020/12/24 02:31:35;;;;;;;30.55;22.30;;;;;;;10.32;61.41;101984.44;1694272;84;21202;-46
2020/12/24 02:34:03;;;;;;;30.55;22.37;;;;;;;10.32;61.38;101983.13;1684314;84;21300;-47
2020/12/24 02:36:31;;;;;;;31.52;21.85;;;;;;;10.33;61.34;101980.95;1682226;84;21191;-46
2020/12/24 02:39:00;;;;;;;32.20;22.82;;;;;;;10.33;61.21;101974.45;1681973;84;21328;-47
2020/12/24 02:41:28;;;;;;;38.20;24.37;;;;;;;10.32;61.15;101964.92;1678690;84;21304;-46
2020/12/24 02:43:56;;;;;;;30.43;23.18;;;;;;;10.31;61.22;101970.98;1684936;84;21159;-47
2020/12/24 02:46:24;;;;;;;29.65;20.50;;;;;;;10.29;61.25;101972.72;1683763;84;21540;-47
2020/12/24 02:48:53;;;;;;;31.82;21.73;;;;;;;10.29;61.16;101974.02;1680283;84;21191;-46
2020/12/24 02:51:22;;;;;;;31.73;22.13;;;;;;;10.28;61.22;101976.20;1706812;82;21184;-46
2020/12/24 02:53:50;;;;;;;29.85;21.10;;;;;;;10.27;61.30;101973.16;1729347;82;21553;-46
2020/12/24 02:56:18;;;;;;;31.50;22.67;;;;;;;10.26;61.14;101983.14;1731941;82;21152;-46
2020/12/24 02:58:47;;;;;;;26.33;20.27;;;;;;;10.21;61.10;101987.47;1735533;82;21327;-46
2020/12/24 03:01:15;;;;;;;30.15;21.50;;;;;;;10.16;61.30;101990.52;1727972;82;21164;-46
2020/12/24 03:03:44;;;;;;;33.60;21.68;;;;;;;10.15;61.34;101996.16;1731124;82;21125;-46
2020/12/24 03:06:12;;;;;;;34.45;23.60;;;;;;;10.16;61.50;101997.02;1745489;82;21406;-46
2020/12/24 03:08:41;;;;;;;32.08;21.40;;;;;;;10.18;61.60;101996.59;1733298;82;21200;-46
2020/12/24 03:11:09;;;;;;;28.98;21.73;;;;;;;10.17;61.66;101996.14;1731595;82;21156;-47
2020/12/24 03:13:37;;;;;;;27.00;20.57;;;;;;;10.19;61.71;101989.20;1735623;82;21291;-47
2020/12/24 03:16:06;;;;;;;31.73;20.72;;;;;;;10.20;61.60;101997.45;1726447;82;21302;-46
2020/12/24 03:18:35;;;;;;;27.52;20.97;;;;;;;10.21;61.63;101994.84;1734668;82;21172;-47
2020/12/24 03:21:03;;;;;;;28.20;19.92;;;;;;;10.23;61.58;101997.44;1722912;82;21196;-47
2020/12/24 03:23:31;;;;;;;30.75;22.48;;;;;;;10.25;61.52;101998.30;1734996;82;21157;-46
2020/12/24 03:26:00;;;;;;;30.25;21.62;;;;;;;10.25;61.53;101991.80;1743475;82;21145;-46
2020/12/24 03:28:28;;;;;;;29.72;21.60;;;;;;;10.26;61.64;101989.19;1730648;82;21197;-47
2020/12/24 03:30:57;;;;;;;26.87;21.25;;;;;;;10.27;61.69;101990.94;1730477;82;21141;-47
2020/12/24 03:33:25;;;;;;;28.55;21.77;;;;;;;10.29;61.59;101984.00;1729732;82;21180;-46
2020/12/24 03:35:54;;;;;;;30.37;22.13;;;;;;;10.32;61.51;101980.53;1724200;82;21146;-46
2020/12/24 03:38:22;;;;;;;34.00;22.07;;;;;;;10.31;61.37;101970.98;1730213;82;21562;-46
2020/12/24 03:40:50;;;;;;;31.52;21.93;;;;;;;10.31;61.37;101970.98;1723408;82;21138;-47
2020/12/24 03:43:18;;;;;;;28.87;20.92;;;;;;;10.30;61.45;101974.47;1728407;82;21121;-46
2020/12/24 03:45:46;;;;;;;25.25;19.92;;;;;;;10.30;61.46;101968.84;1718727;82;21184;-47
2020/12/24 03:48:15;;;;;;;26.27;21.48;;;;;;;10.31;61.45;101967.08;1730821;82;21177;-46
2020/12/24 03:50:43;;;;;;;26.70;19.75;;;;;;;10.31;61.33;101972.28;1713548;82;21186;-46
2020/12/24 03:53:11;;;;;;;31.37;21.87;;;;;;;10.29;61.29;101967.09;1725231;82;21201;-46
2020/12/24 03:55:40;;;;;;;30.77;23.35;;;;;;;10.28;61.27;101965.80;1730713;82;21157;-47
2020/12/24 03:58:09;;;;;;;35.10;21.52;;;;;;;10.24;61.32;101961.01;1720951;82;21169;-48
2020/12/24 04:00:37;;;;;;;25.70;20.30;;;;;;;10.24;61.54;101960.17;1725949;82;21145;-46
2020/12/24 04:03:06;;;;;;;29.23;20.90;;;;;;;10.23;61.49;101959.72;1725374;82;21284;-47
2020/12/24 04:05:35;;;;;;;28.00;20.97;;;;;;;10.23;61.40;101962.32;1721646;82;21348;-46
2020/12/24 04:08:05;;;;;;;32.78;21.30;;;;;;;10.22;61.36;101963.20;1728885;82;21157;-47
2020/12/24 04:10:34;;;;;;;29.50;22.42;;;;;;;10.20;61.36;101962.34;1721261;82;21141;-46
2020/12/24 04:13:02;;;;;;;30.70;20.57;;;;;;;10.17;61.37;101958.00;1725840;82;21196;-46
2020/12/24 04:15:31;;;;;;;27.62;21.02;;;;;;;10.17;61.35;101957.12;1724334;82;21287;-46
2020/12/24 04:17:59;;;;;;;30.60;20.55;;;;;;;10.16;61.45;101955.41;1724827;82;21153;-46
2020/12/24 04:20:28;;;;;;;28.02;21.23;;;;;;;10.15;61.38;101954.96;1723480;81;21288;-48
2020/12/24 04:22:56;;;;;;;27.60;20.85;;;;;;;10.13;61.38;101952.80;1727606;82;21235;-46
2020/12/24 04:25:24;;;;;;;25.68;19.87;;;;;;;10.09;61.30;101951.91;1720556;82;21164;-46
2020/12/24 04:27:53;;;;;;;26.87;19.82;;;;;;;10.08;61.33;101953.19;1730809;82;21153;-47
2020/12/24 04:30:21;;;;;;;27.60;21.48;;;;;;;10.06;61.39;101948.42;1718491;82;21133;-47
2020/12/24 04:32:49;;;;;;;27.37;20.35;;;;;;;10.06;61.39;101944.52;1728892;82;21145;-46
2020/12/24 04:35:18;;;;;;;28.25;21.65;;;;;;;10.05;61.39;101944.11;1736640;82;21581;-46
2020/12/24 04:37:47;;;;;;;29.85;22.40;;;;;;;10.04;61.42;101947.55;1737759;82;21148;-46
2020/12/24 04:40:16;;;;;;;26.75;20.85;;;;;;;10.04;61.34;101947.55;1733023;82;21168;-46
2020/12/24 04:42:45;;;;;;;25.82;20.00;;;;;;;10.01;61.25;101955.37;1732225;82;21349;-48
2020/12/24 04:45:13;;;;;;;25.10;20.12;;;;;;;10.00;61.36;101949.30;1741369;82;21137;-47
2020/12/24 04:47:42;;;;;;;26.20;20.88;;;;;;;10.01;61.43;101957.55;1737668;82;21290;-48
2020/12/24 04:50:10;;;;;;;35.33;24.63;;;;;;;10.01;61.44;101950.17;1746100;82;21169;-46
2020/12/24 04:52:38;;;;;;;36.08;24.75;;;;;;;10.00;61.45;101949.73;1735971;82;21161;-46
2020/12/24 04:55:06;;;;;;;36.70;24.23;;;;;;;9.99;61.34;101952.79;1744700;82;21128;-46
2020/12/24 04:57:35;;;;;;;33.85;23.45;;;;;;;9.98;61.35;101950.16;1737221;82;21162;-47
2020/12/24 05:00:03;;;;;;;31.33;22.37;;;;;;;9.98;61.45;101951.46;1739077;82;21274;-46
2020/12/24 05:02:31;;;;;;;32.67;22.77;;;;;;;10.00;61.35;101945.83;1735070;82;21592;-46
2020/12/24 05:05:01;;;;;;;30.55;21.80;;;;;;;10.00;61.41;101941.92;1736377;82;21172;-46
2020/12/24 05:07:30;;;;;;;30.70;22.05;;;;;;;10.01;61.48;101939.77;1723973;82;21148;-46
2020/12/24 05:09:58;;;;;;;35.92;23.65;;;;;;;10.00;61.29;101940.62;1738724;82;21117;-47
2020/12/24 05:12:28;;;;;;;38.38;22.95;;;;;;;10.01;61.05;101943.67;1738936;82;21207;-46
2020/12/24 05:14:56;;;;;;;33.00;22.05;;;;;;;10.00;60.92;101938.02;1737935;82;21153;-47
2020/12/24 05:17:24;;;;;;;33.50;22.30;;;;;;;10.00;61.03;101938.02;1740418;82;21286;-47
2020/12/24 05:20:07;;;;;;;32.85;22.55;;;;;;;10.00;60.81;101935.42;1735669;82;21144;-46
2020/12/24 05:22:36;;;;;;;33.88;22.98;;;;;;;9.98;60.75;101939.77;1741012;82;21286;-47
2020/12/24 05:25:19;;;;;;;46.90;27.48;;;;;;;9.96;60.86;101933.70;1732198;82;21297;-46
2020/12/24 05:27:57;;;;;;;58.98;30.60;;;;;;;9.93;61.13;101937.62;1681867;85;21192;-47
2020/12/24 05:30:27;;;;;;;143.45;86.32;;;;;;;9.92;61.33;101930.67;1677036;85;21637;-46
2020/12/24 05:32:55;;;;;;;144.35;83.30;;;;;;;9.93;61.32;101929.81;1681947;85;21168;-47
2020/12/24 05:35:24;;;;;;;177.12;107.87;;;;;;;9.93;61.26;101926.79;1672099;85;21193;-46
2020/12/24 05:37:53;;;;;;;139.43;87.20;;;;;;;9.91;61.12;101934.15;1667771;85;21246;-47
2020/12/24 05:40:26;;;;;;;121.28;74.72;;;;;;;9.88;60.91;101927.64;1668317;85;21232;-47
2020/12/24 05:43:00;;;;;;;84.65;48.02;;;;;;;9.85;60.98;101930.67;1667671;85;21574;-47
2020/12/24 05:45:31;;;;;;;83.55;48.70;;;;;;;9.83;61.18;101931.11;1668114;85;21189;-46
2020/12/24 05:48:09;;;;;;;79.53;45.40;;;;;;;9.87;61.29;101928.52;1807691;79;21121;-47
2020/12/24 05:50:44;;;;;;;76.55;46.63;;;;;;;9.81;61.19;101936.73;1748694;80;21211;-47
2020/12/24 05:53:14;;;;;;;73.60;44.70;;;;;;;9.81;61.20;101937.16;1751203;81;21616;-46
2020/12/24 05:55:43;;;;;;;71.62;43.75;;;;;;;9.77;61.24;101936.30;1749787;81;21156;-46
2020/12/24 05:58:11;;;;;;;67.50;40.70;;;;;;;9.76;61.29;101935.89;1754494;81;21199;-46
2020/12/24 06:00:42;;;;;;;67.53;40.03;;;;;;;9.77;61.41;101936.73;1753659;81;21160;-47
2020/12/24 06:03:12;;;;;;;60.43;34.30;;;;;;;9.79;61.48;101938.47;1753795;81;21608;-46
2020/12/24 06:05:55;;;;;;;;;;;;;;;9.80;61.35;101936.32;1754853;81;21253;-46
2020/12/24 06:08:29;;;;;;;62.70;32.60;;;;;;;9.80;61.16;101930.25;1752958;81;20146;-46
2020/12/24 06:11:08;;;;;;;52.38;31.40;;;;;;;9.77;61.30;101931.11;1751737;81;21167;-48
2020/12/24 06:13:45;;;;;;;59.55;32.13;;;;;;;9.80;61.43;101931.13;1767206;79;23381;-46
2020/12/24 06:16:14;;;;;;;54.55;29.95;;;;;;;9.75;61.62;101926.77;1738076;82;21129;-46
2020/12/24 06:18:44;;;;;;;55.03;30.48;;;;;;;9.75;61.76;101927.64;1730272;82;21121;-46
2020/12/24 06:21:17;;;;;;;51.73;30.12;;;;;;;9.78;61.85;101932.86;1741111;82;21168;-46
2020/12/24 06:23:59;;;;;;;43.68;27.30;;;;;;;9.82;61.87;101930.69;1740521;82;21212;-47
2020/12/24 06:26:33;;;;;;;46.83;28.12;;;;;;;9.83;61.95;101931.11;1667372;85;21652;-46
2020/12/24 06:29:07;;;;;;;49.93;26.87;;;;;;;9.92;62.07;101938.04;1771212;79;22922;-46
2020/12/24 06:31:39;;;;;;;52.38;27.20;;;;;;;9.92;62.22;101931.97;1744768;82;21556;-46
2020/12/24 06:34:28;;;;;;;44.53;27.62;;;;;;;9.94;62.42;101930.23;1738516;82;21169;-47
2020/12/24 06:36:58;;;;;;;39.20;22.87;;;;;;;9.98;62.54;101924.16;1745000;82;21160;-47
2020/12/24 06:39:44;;;;;;;37.40;21.82;;;;;;;10.05;62.57;101928.50;1739102;82;21148;-47
2020/12/24 06:42:39;;;;;;;30.72;20.05;;;;;;;10.09;62.68;101923.30;1744951;82;21156;-48
2020/12/24 06:45:31;;;;;;;35.78;21.27;;;;;;;10.16;62.87;101929.41;1737923;82;21148;-47
2020/12/24 06:48:16;;;;;;;30.90;21.27;;;;;;;10.23;63.02;101925.91;1744725;82;21144;-47
2020/12/24 06:50:47;;;;;;;31.17;21.50;;;;;;;10.31;62.98;101924.16;1732796;82;21637;-47
2020/12/24 06:53:31;;;;;;;31.27;22.48;;;;;;;10.37;62.72;101930.21;1660539;84;21139;-48
2020/12/24 06:56:22;;;;;;;29.27;21.87;;;;;;;10.41;62.67;101934.54;1811204;79;22863;-48
2020/12/24 06:59:01;;;;;;;32.95;22.55;;;;;;;10.34;62.68;101942.37;1767773;80;21148;-47
2020/12/24 07:01:35;;;;;;;31.12;22.15;;;;;;;10.29;62.96;101941.50;1785359;80;21128;-48
2020/12/24 07:04:05;;;;;;;33.33;21.82;;;;;;;10.25;63.22;101945.84;1777359;79;21529;-47
2020/12/24 07:06:49;;;;;;;31.10;23.30;;;;;;;10.25;63.35;101947.58;1781451;80;21144;-48
2020/12/24 07:09:27;;;;;;;31.57;21.05;;;;;;;10.24;63.55;101953.66;1742738;81;21122;-47
2020/12/24 07:11:59;;;;;;;31.05;21.97;;;;;;;10.23;63.58;101958.42;1721152;83;21137;-47
2020/12/24 07:14:38;;;;;;;33.63;23.87;;;;;;;10.24;63.81;101960.17;1735484;81;21197;-47
2020/12/24 07:17:12;;;;;;;35.00;23.83;;;;;;;10.25;63.85;101960.58;1710239;83;21146;-47
2020/12/24 07:19:45;;;;;;;37.75;24.70;;;;;;;10.25;63.95;101955.37;1708685;82;21703;-48
2020/12/24 07:22:15;;;;;;;31.68;21.55;;;;;;;10.26;63.99;101952.77;1726436;83;21171;-46
2020/12/24 07:24:49;;;;;;;33.33;23.50;;;;;;;10.28;64.17;101963.20;1708207;83;21134;-46
2020/12/24 07:27:17;;;;;;;38.08;23.70;;;;;;;10.29;64.28;101950.60;1705048;83;21162;-46
2020/12/24 07:29:46;;;;;;;33.15;23.52;;;;;;;10.31;64.45;101947.56;1733500;81;21287;-46
2020/12/24 07:32:15;;;;;;;38.73;25.20;;;;;;;10.33;64.46;101948.42;1737811;81;21212;-47
2020/12/24 07:34:43;;;;;;;33.67;23.75;;;;;;;10.34;64.63;101951.05;1732025;81;21307;-47
2020/12/24 07:37:12;;;;;;;32.95;22.95;;;;;;;10.38;64.79;101950.59;1746056;81;21186;-47
2020/12/24 07:39:52;;;;;;;34.70;24.70;;;;;;;10.42;64.71;101954.93;1745949;81;21153;-47
2020/12/24 07:42:24;;;;;;;35.58;24.25;;;;;;;10.44;64.61;101957.09;1731284;81;21163;-47
2020/12/24 07:44:53;;;;;;;33.83;23.42;;;;;;;10.45;64.79;101953.60;1749380;81;21108;-47
2020/12/24 07:47:21;;;;;;;34.55;22.80;;;;;;;10.38;65.08;101954.50;1742957;81;21164;-47
2020/12/24 07:49:51;;;;;;;36.33;24.23;;;;;;;10.29;65.63;101957.98;1742247;81;21172;-47
2020/12/24 07:52:20;;;;;;;35.10;23.32;;;;;;;10.45;65.15;101960.11;1741808;81;21687;-47
2020/12/24 07:54:49;;;;;;;34.80;22.62;;;;;;;10.49;65.11;101960.53;1746445;81;21312;-47
2020/12/24 07:57:24;;;;;;;41.65;25.20;;;;;;;10.52;65.10;101958.81;1747583;81;21279;-47
2020/12/24 08:00:00;;;;;;;39.38;23.30;;;;;;;10.56;65.08;101954.45;1742605;81;21582;-47
2020/12/24 08:02:28;;;;;;;34.03;22.42;;;;;;;10.57;65.19;101958.81;1663453;85;21168;-47
2020/12/24 08:04:57;;;;;;;35.80;23.12;;;;;;;10.58;65.31;101954.89;1721013;83;21113;-46
2020/12/24 08:07:26;;;;;;;36.93;23.77;;;;;;;10.62;65.29;101951.83;1706352;82;21298;-46
2020/12/24 08:09:54;;;;;;;32.70;23.65;;;;;;;10.66;65.19;101952.25;1702921;83;21148;-46
2020/12/24 08:12:30;;;;;;;32.03;22.20;;;;;;;10.72;65.10;101953.96;1766304;79;22931;-47
2020/12/24 08:14:58;;;;;;;32.60;21.80;;;;;;;10.69;65.04;101956.16;1739552;82;21140;-46
2020/12/24 08:17:33;;;;;;;36.00;22.65;;;;;;;10.70;65.17;101952.67;1725824;82;21152;-46
2020/12/24 08:20:08;;;;;;;41.15;24.05;;;;;;;10.74;65.27;101957.00;1728517;82;21156;-46
2020/12/24 08:22:56;;;;;;;32.83;23.12;;;;;;;10.61;65.79;101955.33;1659198;85;21139;-47
2020/12/24 08:25:23;;;;;;;31.17;21.12;;;;;;;10.75;65.34;101943.13;1688762;84;22208;-46
2020/12/24 08:27:52;;;;;;;32.45;22.80;;;;;;;10.80;65.29;101941.35;1697580;84;21167;-46
2020/12/24 08:30:20;;;;;;;34.95;22.42;;;;;;;10.83;65.11;101933.55;1699706;84;21628;-47
2020/12/24 08:32:49;;;;;;;34.50;21.65;;;;;;;10.88;64.96;101929.16;1691101;84;21303;-47
2020/12/24 08:35:18;;;;;;;31.07;22.60;;;;;;;10.89;64.79;101928.31;1687867;84;21205;-47
2020/12/24 08:37:48;;;;;;;31.15;21.52;;;;;;;10.95;64.78;101924.38;1693604;84;21168;-47
2020/12/24 08:40:25;;;;;;;29.52;21.95;;;;;;;10.97;64.67;101916.11;1691868;84;21190;-46
2020/12/24 08:43:01;;;;;;;32.03;22.65;;;;;;;11.01;64.68;101915.22;1684200;85;21152;-47
2020/12/24 08:45:29;;;;;;;30.57;22.25;;;;;;;11.07;64.46;101919.09;1692678;84;21155;-47
2020/12/24 08:47:58;;;;;;;30.37;20.62;;;;;;;11.10;64.28;101917.80;1687073;84;21171;-46
2020/12/24 08:50:33;;;;;;;28.32;20.77;;;;;;;11.12;64.34;101916.05;1692244;84;21180;-47
2020/12/24 08:53:05;;;;;;;33.35;21.23;;;;;;;11.15;64.25;101908.20;1691995;84;21164;-47
2020/12/24 08:55:33;;;;;;;30.90;21.52;;;;;;;10.93;64.89;101902.68;1697764;84;21184;-46
2020/12/24 08:58:01;;;;;;;30.95;21.20;;;;;;;10.83;65.18;101907.51;1684123;85;21341;-46
2020/12/24 09:00:30;;;;;;;30.97;21.85;;;;;;;10.80;65.29;101899.69;1692094;84;21167;-46
2020/12/24 09:02:58;;;;;;;30.85;21.17;;;;;;;10.83;65.43;101896.22;1694526;84;21663;-46
2020/12/24 09:05:27;;;;;;;34.75;21.82;;;;;;;10.85;65.36;101886.23;1692530;84;21120;-46
2020/12/24 09:07:57;;;;;;;30.05;21.20;;;;;;;10.88;65.32;101884.05;1693819;84;21168;-46
2020/12/24 09:10:26;;;;;;;30.85;22.40;;;;;;;10.89;65.26;101873.63;1690406;84;21200;-46
2020/12/24 09:13:02;;;;;;;32.40;22.67;;;;;;;10.93;65.23;101859.71;1728508;82;21605;-47
2020/12/24 09:15:31;;;;;;;28.07;20.72;;;;;;;10.95;65.01;101855.36;1716500;82;21113;-46
2020/12/24 09:18:00;;;;;;;27.22;21.60;;;;;;;10.95;65.03;101854.05;1713815;82;21137;-46
2020/12/24 09:20:30;;;;;;;31.05;21.15;;;;;;;10.96;65.09;101849.30;1722207;82;21273;-47
2020/12/24 09:23:13;;;;;;;33.83;21.57;;;;;;;10.99;65.12;101849.26;1722234;82;21145;-46
2020/12/24 09:25:44;;;;;;;31.37;21.68;;;;;;;11.01;64.96;101843.60;1714499;82;21132;-47
2020/12/24 09:28:26;;;;;;;27.55;21.15;;;;;;;11.03;64.94;101840.55;1720693;82;21557;-47
2020/12/24 09:30:59;;;;;;;29.37;21.15;;;;;;;11.05;64.95;101838.80;1721856;82;21180;-47
2020/12/24 09:33:27;;;;;;;30.37;20.37;;;;;;;11.05;65.02;101832.72;1719327;82;21157;-47
2020/12/24 09:35:57;;;;;;;34.30;22.52;;;;;;;11.06;65.06;101830.13;1714495;82;21164;-47
2020/12/24 09:38:25;;;;;;;30.97;21.73;;;;;;;11.10;65.15;101829.66;1727339;82;21161;-48
2020/12/24 09:40:54;;;;;;;33.88;22.65;;;;;;;11.12;65.31;101833.98;1717936;82;21276;-48
2020/12/24 09:43:24;;;;;;;31.20;20.55;;;;;;;11.15;65.15;101836.55;1722364;82;21574;-47
2020/12/24 09:45:54;;;;;;;30.25;21.20;;;;;;;11.16;65.28;101831.79;1725104;82;21211;-47
2020/12/24 09:48:22;;;;;;;29.87;22.10;;;;;;;11.20;65.14;101834.80;1723384;82;21161;-47
2020/12/24 09:50:50;;;;;;;39.58;23.60;;;;;;;11.25;64.92;101834.30;1723279;82;21185;-47
2020/12/24 09:53:20;;;;;;;28.67;19.67;;;;;;;11.24;64.91;101834.33;1721927;82;21283;-48
2020/12/24 09:55:48;;;;;;;29.35;21.57;;;;;;;11.25;64.92;101825.19;1720619;82;21149;-47
2020/12/24 09:58:16;;;;;;;28.27;20.08;;;;;;;11.23;64.81;101822.20;1717967;82;21157;-47
2020/12/24 10:00:45;;;;;;;32.08;20.95;;;;;;;11.23;64.75;101817.82;1721892;82;21291;-47
2020/12/24 10:03:14;;;;;;;30.88;21.17;;;;;;;11.22;64.79;101816.11;1718687;82;21161;-47
2020/12/24 10:05:42;;;;;;;28.10;20.45;;;;;;;11.20;64.92;101812.66;1713581;82;21149;-46
2020/12/24 10:08:11;;;;;;;29.77;20.77;;;;;;;11.20;64.85;101807.45;1729473;82;21129;-47
2020/12/24 10:10:39;;;;;;;29.37;21.57;;;;;;;11.19;64.81;101797.88;1730092;82;21165;-46
2020/12/24 10:13:09;;;;;;;29.98;21.37;;;;;;;11.18;64.87;101798.78;1730929;82;21605;-47
2020/12/24 10:15:37;;;;;;;30.85;21.57;;;;;;;11.19;64.93;101800.95;1732694;82;21128;-47
2020/12/24 10:18:06;;;;;;;29.25;21.07;;;;;;;11.19;65.04;101797.88;1737822;82;21168;-47
2020/12/24 10:20:35;;;;;;;34.20;22.13;;;;;;;11.19;65.10;101793.98;1728335;82;21148;-47
2020/12/24 10:23:03;;;;;;;33.48;20.30;;;;;;;11.19;65.28;101786.16;1728840;82;21144;-47
2020/12/24 10:25:32;;;;;;;32.95;22.27;;;;;;;11.22;65.36;101787.45;1729161;82;21160;-48
2020/12/24 10:28:01;;;;;;;30.75;21.07;;;;;;;11.27;65.21;101783.05;1725324;82;21296;-47
2020/12/24 10:30:29;;;;;;;27.70;20.57;;;;;;;11.26;65.08;101786.55;1733351;82;21192;-48
2020/12/24 10:32:58;;;;;;;28.70;19.95;;;;;;;11.26;65.04;101783.95;1735516;82;21164;-47
2020/12/24 10:35:26;;;;;;;27.37;20.48;;;;;;;11.25;64.94;101780.90;1725276;82;21184;-48
2020/12/24 10:37:55;;;;;;;27.55;18.98;;;;;;;11.26;64.81;101778.73;1729077;82;21132;-48
2020/12/24 10:40:24;;;;;;;28.30;20.62;;;;;;;11.24;64.85;101772.67;1726249;82;21341;-47
2020/12/24 10:42:53;;;;;;;28.95;20.00;;;;;;;11.24;65.04;101767.46;1724225;82;21494;-47
2020/12/24 10:45:22;;;;;;;30.77;19.50;;;;;;;11.26;65.11;101774.83;1735358;82;21131;-47
2020/12/24 10:47:51;;;;;;;27.58;19.17;;;;;;;11.27;65.05;101759.60;1728822;82;21136;-47
2020/12/24 10:50:20;;;;;;;23.07;18.10;;;;;;;11.40;64.81;101753.41;1725753;82;21136;-47
2020/12/24 10:52:48;;;;;;;25.10;19.05;;;;;;;11.66;63.92;101745.78;1728812;82;21140;-48
2020/12/24 10:55:17;;;;;;;27.15;18.87;;;;;;;11.71;63.86;101740.09;1724156;83;21156;-47
2020/12/24 10:57:46;;;;;;;25.82;18.98;;;;;;;11.77;63.74;101745.24;1733487;82;21149;-48
2020/12/24 11:00:15;;;;;;;24.67;18.35;;;;;;;11.81;63.67;101746.97;1740382;82;21148;-47
2020/12/24 11:02:43;;;;;;;24.75;18.42;;;;;;;11.85;63.67;101742.14;1726338;82;21640;-48
2020/12/24 11:05:11;;;;;;;26.10;18.10;;;;;;;11.77;63.83;101733.52;1725593;82;21151;-48
2020/12/24 11:07:40;;;;;;;26.55;19.10;;;;;;;11.78;63.99;101731.34;1736206;82;21152;-48
2020/12/24 11:10:08;;;;;;;28.45;19.48;;;;;;;11.94;63.49;101731.58;1730430;82;21286;-48
2020/12/24 11:12:40;;;;;;;25.27;17.80;;;;;;;12.01;63.15;101734.55;1721007;82;21161;-48
2020/12/24 11:15:08;;;;;;;24.52;17.52;;;;;;;12.01;63.07;101717.13;1717668;82;21605;-48
2020/12/24 11:17:36;;;;;;;24.87;18.25;;;;;;;12.04;63.10;101711.02;1722656;82;21185;-48
2020/12/24 11:20:05;;;;;;;25.70;17.60;;;;;;;12.07;63.03;101716.22;1717024;82;21113;-47
2020/12/24 11:22:34;;;;;;;23.02;17.40;;;;;;;12.11;63.02;101719.20;1718265;82;21149;-47